Airfield :
LOGIN :

Register | Disclaimer

   EN    FR    IT 

 










Legend :    VFR   Marginal VFR   IFR   Intensive IFR   Very Intensive IFR
Visi :
Ceiling :
>= 8 km
>= 3000ft
5 to 8 km
1000 to 3000 ft
1500m to 5 km
500 to 1000 ft
800 to 1500m
200 to 500 ft
< 800m
< 200 ft
Symbols :   Thunderstorms  Fog  Heavy snow  Heavy precipitations  Wind > 20 kt
SIGMETs :     Misc.  Thunderstorms  Icing  Turbulence  Mountain Waves  Volcanic Ashes






- Airport Elevation : 70 ft
- IATA code : LMP


LICD - Lampedusa

CURRENT METAR :
  • 040720Z AUTO 15014KT 9999 NCD 23/20 Q1010

EXPIRED METARs :
  • 040650Z AUTO 15014KT 9999 NCD 23/19 Q1010
  • 040620Z AUTO 15014KT 9999 FEW010/// 22/19 Q1009
  • 040550Z AUTO 15012KT 9999 FEW011/// 22/19 Q1010
  • 040520Z AUTO 15012KT 9999 BKN012/// 22/19 Q1009
  • 040450Z AUTO 15012KT 9999 BKN012/// 21/19 Q1009

TAF TAF LICD
Valid from the 04 at 06:00 until the 05 at 06:00 UTC


040500Z 0406/0506 16014KT CAVOK
BECMG 0500/0502 03013KT



MET'MAP, your aeronautical weather chart ! - Copyright ORBIFLY December 2007 - Disclaimer

ORBIFLY MET'MAP TEAM :

Programming & Development : Alexandra Zaïnal
Concept & original design : Baudouin d'Aumeries
Assistance for programming : Marc-Olivier Méhu
Technical & hardware support : Manuel Goepfert

Contact : metmap@orbifly.com




SOURCES & CREDITS :

   NOAA